VDPPVLVT

Guest
Details From VDPP - Phnom Penh Intl
To VLVT - Vientiane Wattay
Flight Number -
Tags generated
Created
Modified
Stats Distance 453 nm / 839 km
Max Altitude 35,000 ft / 10,668 m
Waypoints 9
Social Downloads 1
Likes 0
Share VATSIM

Download

Looking for another format? Having issues loading an existing format? Contact us
Advertisement - Login to hide

Notes

Basic altitude profile: - Ascent Rate: 2500ft/min - Ascent Speed: 250kts - Cruise Altitude: 35000ft - Cruise Speed: 420kts - Descent Rate: 1500ft/min - Descent Speed: 250kts Options: - Use NATs: yes - Use PACOTS: yes - Use low airways: yes - Use high airways: yes

Route

VDPP PNH B329 LEKOB 1500N10500E UBL R470 UDN VLVT

ID Type Via Altitude Latitude Longitude Leg Dist Tot Dist Heading (true) Name
O VDPP APT - 0 ft / 0 m 11.54654˚ 104.84414˚ - 0 nm - Phnom Penh Intl
PNH VOR - 0 ft / 0 m 11.54667˚ 104.84167˚ 0 nm 0 nm 273° / 273° PHNOM PENH VOR-DME
VIBUN FIX B329 (AWY-LO) 35,000 ft / 10,668 m 13.79667˚ 105.43167˚ 139 nm 139 nm 14° / 14° -
LEKOB FIX B329 (AWY-HI) 35,000 ft / 10,668 m 14.13000˚ 105.52000˚ 20 nm 160 nm 14° / 14° -
1500N10500E LATLON - 34,000 ft / 10,363 m 15.00000˚ 105.00000˚ 60 nm 220 nm 330° / 330° -
UBL VOR - 34,000 ft / 10,363 m 15.24520˚ 104.86592˚ 16 nm 237 nm 332° / 332° UBON VOR-DME
ROT VOR R470 (AWY-HI) 28,600 ft / 8,717 m 16.11683˚ 103.77207˚ 82 nm 319 nm 310° / 309° ROI ET VOR-DME
UDN VOR R470 (AWY-LO) 8,100 ft / 2,469 m 17.38450˚ 102.77501˚ 95 nm 414 nm 323° / 323° UDON VOR-DME
O VLVT APT - 0 ft / 0 m 17.98834˚ 102.56322˚ 38 nm 452 nm 342° / 341° Vientiane Wattay

Altitude Profile

Advertisement - Login to hide

Weather


0- 5 10 15 20 25 30 35+ Temperature / ° C

Clouds and Precipitation
Forecast for 2017-12-13 18:00 UTC. Updated 6 minutes ago

Ground ~20,000 ft ~40,000 ft Winds

VDPP

Details ICAO VDPP (PNH)
Name Phnom Penh Intl
Region Cambodia
Timezone Asia/Phnom_Penh (UTC+7.0)
Stats Elevation 40 ft / 12 m (AMSL)
Location 11.546542° 104.844142°
Runways 1
Magnetic Variation 0.493° W

METAR

VDPP 131700Z 19002KT 8000 FEW017 26/25 Q1010

Decode

TAF

TAF VDPP 131100Z 1312/1406 02006KT 9999 FEW017= TAF VDSR 131100Z 1312/1406 01005KT 9999 SCT017

Decode

Departure Runways

ID Width Length Bearing (true) Bearing (mag) Surface Threshold Offset Overrun Length
05 144 ft / 44 m 9,815 ft / 2,992 m 45.61° 46.10° Asphalt 400 ft / 122 m 0 ft / 0 m
23 144 ft / 44 m 9,815 ft / 2,992 m 225.61° 226.10° Asphalt 492 ft / 150 m 0 ft / 0 m

VLVT

Details ICAO VLVT (VTE)
Name Vientiane Wattay
Region Laos
Timezone Asia/Vientiane (UTC+7.0)
Stats Elevation 1,850 ft / 564 m (AMSL)
Location 17.988343° 102.563222°
Runways 1
Magnetic Variation 0.899° W

METAR

VLVT 131600Z 02002KT 3000 BR NSC 22/22 Q1011 NOSIG

Decode

TAF

TAF TAF VLVT 131100Z 1312/1412 06004KT 4000 BR FEW020 BKN050 TEMPO 1318/1323 3000 BR SCT050

Decode

Destination Runways

ID Width Length Bearing (true) Bearing (mag) Surface Threshold Offset Overrun Length
13 148 ft / 45 m 9,862 ft / 3,006 m 135.42° 136.32° Asphalt 0 ft / 0 m 0 ft / 0 m
31 148 ft / 45 m 9,862 ft / 3,006 m 315.42° 316.32° Asphalt 0 ft / 0 m 0 ft / 0 m

Approach Navaids

Runway Type Ident Frequency Range Bearing (true) Bearing (mag) Slope Elevation
13 Localiser IVTN 109.90 MHz 18 nm / 33 km 135.43° 136.33° - 553 ft / 169 m (AMSL)
13 Glidescope IVTN 109.90 MHz 10 nm / 19 km 136.00° 136.90° 3.00° 550 ft / 168 m (AMSL)
13 DME IVTN 109.90 MHz 18 nm / 33 km - - - 550 ft / 168 m (AMSL)

Popular Alternatives